sensor_id;sensor_type;location;lat;lon;timestamp;pressure;altitude;pressure_sealevel;temperature;humidity
72124;BME280;63818;37.134;-8.548;2024-02-21T00:00:24;102393.6;;;17.5;68.0
72124;BME280;63818;37.134;-8.548;2024-02-21T00:05:12;102394.8;;;17.6;67.6
72124;BME280;63818;37.134;-8.548;2024-02-21T00:10:00;102399.8;;;17.5;68.0
72124;BME280;63818;37.134;-8.548;2024-02-21T00:14:48;102404.4;;;17.5;67.8
72124;BME280;63818;37.134;-8.548;2024-02-21T00:19:36;102385.2;;;17.4;67.7
72124;BME280;63818;37.134;-8.548;2024-02-21T00:24:24;102377.2;;;17.4;67.9
72124;BME280;63818;37.134;-8.548;2024-02-21T00:29:12;102372.8;;;17.5;67.2
72124;BME280;63818;37.134;-8.548;2024-02-21T00:34:00;102370.4;;;17.6;66.5
72124;BME280;63818;37.134;-8.548;2024-02-21T00:38:49;102367.0;;;17.5;66.7
72124;BME280;63818;37.134;-8.548;2024-02-21T00:43:37;102356.0;;;17.5;66.8
72124;BME280;63818;37.134;-8.548;2024-02-21T00:48:25;102353.8;;;17.5;66.8
72124;BME280;63818;37.134;-8.548;2024-02-21T00:53:12;102342.2;;;17.4;67.0
72124;BME280;63818;37.134;-8.548;2024-02-21T00:58:00;102343.9;;;17.4;67.0
72124;BME280;63818;37.134;-8.548;2024-02-21T01:02:48;102343.9;;;17.4;67.2
72124;BME280;63818;37.134;-8.548;2024-02-21T01:07:36;102345.0;;;17.3;67.9
72124;BME280;63818;37.134;-8.548;2024-02-21T01:12:24;102350.2;;;17.3;68.3
72124;BME280;63818;37.134;-8.548;2024-02-21T01:17:12;102345.0;;;17.3;68.1
72124;BME280;63818;37.134;-8.548;2024-02-21T01:22:00;102342.3;;;17.3;67.8
72124;BME280;63818;37.134;-8.548;2024-02-21T01:26:48;102342.6;;;17.3;68.2
72124;BME280;63818;37.134;-8.548;2024-02-21T01:31:36;102342.1;;;17.2;67.9
72124;BME280;63818;37.134;-8.548;2024-02-21T01:36:24;102342.9;;;17.2;68.2
72124;BME280;63818;37.134;-8.548;2024-02-21T01:41:12;102342.2;;;17.1;68.5
72124;BME280;63818;37.134;-8.548;2024-02-21T01:45:59;102347.3;;;17.1;69.0
72124;BME280;63818;37.134;-8.548;2024-02-21T01:50:49;102349.2;;;17.0;70.0
72124;BME280;63818;37.134;-8.548;2024-02-21T01:55:37;102349.8;;;16.9;70.4
72124;BME280;63818;37.134;-8.548;2024-02-21T02:00:28;102353.1;;;16.9;71.1
72124;BME280;63818;37.134;-8.548;2024-02-21T02:05:17;102356.0;;;16.9;71.4
72124;BME280;63818;37.134;-8.548;2024-02-21T02:10:06;102348.0;;;16.9;71.1
72124;BME280;63818;37.134;-8.548;2024-02-21T02:14:59;102342.9;;;16.9;71.3
72124;BME280;63818;37.134;-8.548;2024-02-21T02:19:47;102354.5;;;16.8;71.3
72124;BME280;63818;37.134;-8.548;2024-02-21T02:24:35;102353.8;;;16.7;71.4
72124;BME280;63818;37.134;-8.548;2024-02-21T02:29:23;102356.6;;;16.7;71.2
72124;BME280;63818;37.134;-8.548;2024-02-21T02:34:11;102358.1;;;16.7;70.9
72124;BME280;63818;37.134;-8.548;2024-02-21T02:39:00;102356.5;;;16.6;70.1
72124;BME280;63818;37.134;-8.548;2024-02-21T02:43:47;102345.9;;;16.6;69.7
72124;BME280;63818;37.134;-8.548;2024-02-21T02:48:35;102359.3;;;16.6;70.3
72124;BME280;63818;37.134;-8.548;2024-02-21T02:53:23;102345.6;;;16.5;71.0
72124;BME280;63818;37.134;-8.548;2024-02-21T02:58:11;102341.8;;;16.5;71.4
72124;BME280;63818;37.134;-8.548;2024-02-21T03:02:59;102310.0;;;16.5;71.5
72124;BME280;63818;37.134;-8.548;2024-02-21T03:07:48;102303.5;;;16.3;71.9
72124;BME280;63818;37.134;-8.548;2024-02-21T03:12:36;102300.5;;;16.3;71.7
72124;BME280;63818;37.134;-8.548;2024-02-21T03:17:24;102297.3;;;16.3;72.0
72124;BME280;63818;37.134;-8.548;2024-02-21T03:22:13;102297.6;;;16.4;71.9
72124;BME280;63818;37.134;-8.548;2024-02-21T03:27:02;102291.2;;;16.3;71.4
72124;BME280;63818;37.134;-8.548;2024-02-21T03:31:50;102286.2;;;16.3;72.1
72124;BME280;63818;37.134;-8.548;2024-02-21T03:36:38;102280.4;;;16.2;72.2
72124;BME280;63818;37.134;-8.548;2024-02-21T03:41:26;102294.4;;;16.1;72.9
72124;BME280;63818;37.134;-8.548;2024-02-21T03:46:17;102301.9;;;16.2;72.7
72124;BME280;63818;37.134;-8.548;2024-02-21T03:51:07;102302.9;;;16.1;72.9
72124;BME280;63818;37.134;-8.548;2024-02-21T03:55:55;102305.7;;;16.1;73.6
72124;BME280;63818;37.134;-8.548;2024-02-21T04:00:43;102299.4;;;16.0;73.6
72124;BME280;63818;37.134;-8.548;2024-02-21T04:05:33;102295.2;;;16.1;73.3
72124;BME280;63818;37.134;-8.548;2024-02-21T04:10:22;102287.9;;;16.1;72.1
72124;BME280;63818;37.134;-8.548;2024-02-21T04:15:10;102286.8;;;16.2;71.3
72124;BME280;63818;37.134;-8.548;2024-02-21T04:20:04;102287.3;;;16.2;70.5
72124;BME280;63818;37.134;-8.548;2024-02-21T04:24:52;102293.0;;;16.2;69.8
72124;BME280;63818;37.134;-8.548;2024-02-21T04:29:40;102291.9;;;16.2;69.3
72124;BME280;63818;37.134;-8.548;2024-02-21T04:34:28;102293.3;;;16.1;67.9
72124;BME280;63818;37.134;-8.548;2024-02-21T04:39:19;102292.1;;;16.2;67.0
72124;BME280;63818;37.134;-8.548;2024-02-21T04:44:23;102291.4;;;16.2;67.5
72124;BME280;63818;37.134;-8.548;2024-02-21T04:49:11;102289.8;;;16.1;68.0
72124;BME280;63818;37.134;-8.548;2024-02-21T04:53:59;102281.5;;;16.1;67.6
72124;BME280;63818;37.134;-8.548;2024-02-21T04:58:53;102275.5;;;16.1;67.3
72124;BME280;63818;37.134;-8.548;2024-02-21T05:03:41;102258.7;;;15.9;67.7
72124;BME280;63818;37.134;-8.548;2024-02-21T05:08:30;102258.2;;;15.8;67.5
72124;BME280;63818;37.134;-8.548;2024-02-21T05:13:20;102256.2;;;15.8;68.1
72124;BME280;63818;37.134;-8.548;2024-02-21T05:18:17;102264.0;;;15.7;68.3
72124;BME280;63818;37.134;-8.548;2024-02-21T05:23:05;102265.0;;;15.7;68.4
72124;BME280;63818;37.134;-8.548;2024-02-21T05:32:45;102279.3;;;15.9;67.8
72124;BME280;63818;37.134;-8.548;2024-02-21T05:42:26;102286.9;;;15.9;66.7
72124;BME280;63818;37.134;-8.548;2024-02-21T05:47:16;102293.6;;;15.9;66.1
72124;BME280;63818;37.134;-8.548;2024-02-21T05:52:07;102300.9;;;15.9;65.9
72124;BME280;63818;37.134;-8.548;2024-02-21T05:56:55;102313.6;;;15.8;65.8
72124;BME280;63818;37.134;-8.548;2024-02-21T06:01:45;102313.6;;;15.8;66.1
72124;BME280;63818;37.134;-8.548;2024-02-21T06:06:36;102314.1;;;15.8;65.8
72124;BME280;63818;37.134;-8.548;2024-02-21T06:11:24;102297.2;;;15.9;65.4
72124;BME280;63818;37.134;-8.548;2024-02-21T06:16:14;102300.1;;;15.9;64.8
72124;BME280;63818;37.134;-8.548;2024-02-21T06:21:02;102298.8;;;15.9;65.0
72124;BME280;63818;37.134;-8.548;2024-02-21T06:25:53;102298.3;;;15.9;65.4
72124;BME280;63818;37.134;-8.548;2024-02-21T06:30:41;102292.4;;;15.8;65.8
72124;BME280;63818;37.134;-8.548;2024-02-21T06:35:29;102287.3;;;15.8;65.7
72124;BME280;63818;37.134;-8.548;2024-02-21T06:45:10;102301.0;;;15.7;66.2
72124;BME280;63818;37.134;-8.548;2024-02-21T06:49:58;102304.3;;;15.7;66.8
72124;BME280;63818;37.134;-8.548;2024-02-21T06:54:47;102299.1;;;15.6;68.0
72124;BME280;63818;37.134;-8.548;2024-02-21T06:59:37;102308.2;;;15.6;68.9
72124;BME280;63818;37.134;-8.548;2024-02-21T07:04:25;102310.4;;;15.3;69.6
72124;BME280;63818;37.134;-8.548;2024-02-21T07:09:13;102302.8;;;15.2;69.9
72124;BME280;63818;37.134;-8.548;2024-02-21T07:14:06;102298.6;;;15.2;68.9
72124;BME280;63818;37.134;-8.548;2024-02-21T07:18:56;102303.1;;;15.2;68.5
72124;BME280;63818;37.134;-8.548;2024-02-21T07:23:44;102316.8;;;15.4;68.2
72124;BME280;63818;37.134;-8.548;2024-02-21T07:28:33;102318.3;;;15.4;68.0
72124;BME280;63818;37.134;-8.548;2024-02-21T07:33:21;102337.6;;;15.3;67.7
72124;BME280;63818;37.134;-8.548;2024-02-21T07:38:09;102352.0;;;15.3;67.7
72124;BME280;63818;37.134;-8.548;2024-02-21T07:43:01;102358.3;;;15.2;67.2
72124;BME280;63818;37.134;-8.548;2024-02-21T07:47:50;102370.4;;;15.3;66.8
72124;BME280;63818;37.134;-8.548;2024-02-21T07:52:38;102370.2;;;15.4;66.0
72124;BME280;63818;37.134;-8.548;2024-02-21T07:57:26;102366.4;;;15.4;65.7
72124;BME280;63818;37.134;-8.548;2024-02-21T08:02:22;102376.4;;;15.4;65.5
72124;BME280;63818;37.134;-8.548;2024-02-21T08:07:10;102386.5;;;15.6;64.2
72124;BME280;63818;37.134;-8.548;2024-02-21T08:12:01;102388.1;;;15.8;63.0
72124;BME280;63818;37.134;-8.548;2024-02-21T08:16:49;102380.5;;;15.8;63.4
72124;BME280;63818;37.134;-8.548;2024-02-21T08:21:37;102386.4;;;15.8;63.9
72124;BME280;63818;37.134;-8.548;2024-02-21T08:26:29;102392.5;;;15.9;64.6
72124;BME280;63818;37.134;-8.548;2024-02-21T08:31:20;102397.5;;;16.0;66.4
72124;BME280;63818;37.134;-8.548;2024-02-21T08:36:08;102406.4;;;16.0;65.9
72124;BME280;63818;37.134;-8.548;2024-02-21T08:41:21;102418.4;;;16.0;66.8
72124;BME280;63818;37.134;-8.548;2024-02-21T08:46:09;102429.3;;;15.9;67.6
72124;BME280;63818;37.134;-8.548;2024-02-21T08:50:57;102427.0;;;16.0;67.8
72124;BME280;63818;37.134;-8.548;2024-02-21T08:55:45;102421.2;;;15.9;68.0
72124;BME280;63818;37.134;-8.548;2024-02-21T09:00:33;102423.2;;;15.9;68.0
72124;BME280;63818;37.134;-8.548;2024-02-21T09:05:21;102428.1;;;15.9;69.0
72124;BME280;63818;37.134;-8.548;2024-02-21T09:10:12;102430.5;;;15.9;69.0
72124;BME280;63818;37.134;-8.548;2024-02-21T09:15:09;102438.0;;;16.1;68.1
72124;BME280;63818;37.134;-8.548;2024-02-21T09:24:50;102430.9;;;16.2;67.6
72124;BME280;63818;37.134;-8.548;2024-02-21T09:29:37;102433.0;;;16.3;67.3
72124;BME280;63818;37.134;-8.548;2024-02-21T09:34:25;102443.9;;;16.4;69.0
72124;BME280;63818;37.134;-8.548;2024-02-21T09:39:14;102446.2;;;16.4;69.3
72124;BME280;63818;37.134;-8.548;2024-02-21T09:44:04;102441.7;;;16.5;68.1
72124;BME280;63818;37.134;-8.548;2024-02-21T09:49:05;102448.3;;;16.6;67.7
72124;BME280;63818;37.134;-8.548;2024-02-21T09:53:55;102450.1;;;16.6;69.3
72124;BME280;63818;37.134;-8.548;2024-02-21T09:58:44;102448.9;;;16.7;68.1
72124;BME280;63818;37.134;-8.548;2024-02-21T10:03:34;102459.4;;;16.8;67.9
72124;BME280;63818;37.134;-8.548;2024-02-21T10:08:22;102460.0;;;16.8;66.1
72124;BME280;63818;37.134;-8.548;2024-02-21T10:13:25;102462.0;;;16.9;67.4
72124;BME280;63818;37.134;-8.548;2024-02-21T10:18:17;102465.9;;;17.0;65.4
72124;BME280;63818;37.134;-8.548;2024-02-21T10:23:05;102469.3;;;17.0;68.6
72124;BME280;63818;37.134;-8.548;2024-02-21T10:27:54;102473.7;;;17.0;69.0
72124;BME280;63818;37.134;-8.548;2024-02-21T10:32:53;102472.0;;;17.0;66.4
72124;BME280;63818;37.134;-8.548;2024-02-21T10:37:42;102453.2;;;17.1;64.2
72124;BME280;63818;37.134;-8.548;2024-02-21T10:42:31;102459.0;;;17.1;64.3
72124;BME280;63818;37.134;-8.548;2024-02-21T10:47:22;102450.8;;;17.2;60.6
72124;BME280;63818;37.134;-8.548;2024-02-21T10:52:14;102436.9;;;17.3;58.1
72124;BME280;63818;37.134;-8.548;2024-02-21T10:57:02;102429.5;;;17.3;57.3
72124;BME280;63818;37.134;-8.548;2024-02-21T11:01:51;102431.2;;;17.4;57.1
72124;BME280;63818;37.134;-8.548;2024-02-21T11:06:40;102419.9;;;17.5;54.2
72124;BME280;63818;37.134;-8.548;2024-02-21T11:11:29;102415.0;;;17.5;52.8
72124;BME280;63818;37.134;-8.548;2024-02-21T11:16:26;102405.0;;;17.7;53.0
72124;BME280;63818;37.134;-8.548;2024-02-21T11:21:14;102413.7;;;17.8;52.3
72124;BME280;63818;37.134;-8.548;2024-02-21T11:26:09;102418.2;;;17.9;52.1
72124;BME280;63818;37.134;-8.548;2024-02-21T11:31:09;102429.3;;;17.9;53.7
72124;BME280;63818;37.134;-8.548;2024-02-21T11:35:58;102425.9;;;18.0;54.5
72124;BME280;63818;37.134;-8.548;2024-02-21T11:40:46;102422.6;;;18.0;55.5
72124;BME280;63818;37.134;-8.548;2024-02-21T11:45:34;102408.7;;;18.1;53.1
72124;BME280;63818;37.134;-8.548;2024-02-21T11:50:22;102424.5;;;18.1;54.3
72124;BME280;63818;37.134;-8.548;2024-02-21T11:55:10;102419.7;;;18.2;55.2
72124;BME280;63818;37.134;-8.548;2024-02-21T12:00:21;102410.0;;;18.2;54.3
72124;BME280;63818;37.134;-8.548;2024-02-21T12:05:10;102414.3;;;18.2;54.8
72124;BME280;63818;37.134;-8.548;2024-02-21T12:10:00;102414.3;;;18.2;53.7
72124;BME280;63818;37.134;-8.548;2024-02-21T12:14:56;102403.6;;;18.2;54.7
72124;BME280;63818;37.134;-8.548;2024-02-21T12:19:44;102401.5;;;18.3;55.1
72124;BME280;63818;37.134;-8.548;2024-02-21T12:24:32;102399.0;;;18.3;53.8
72124;BME280;63818;37.134;-8.548;2024-02-21T12:29:21;102389.0;;;18.4;53.7
72124;BME280;63818;37.134;-8.548;2024-02-21T12:34:11;102366.6;;;18.4;54.1
72124;BME280;63818;37.134;-8.548;2024-02-21T12:39:01;102359.4;;;18.4;54.0
72124;BME280;63818;37.134;-8.548;2024-02-21T12:43:49;102365.4;;;18.5;55.8
72124;BME280;63818;37.134;-8.548;2024-02-21T12:48:37;102358.8;;;18.5;56.2
72124;BME280;63818;37.134;-8.548;2024-02-21T12:53:25;102349.8;;;18.5;55.8
72124;BME280;63818;37.134;-8.548;2024-02-21T12:58:16;102338.1;;;18.5;57.6
72124;BME280;63818;37.134;-8.548;2024-02-21T13:03:07;102328.9;;;18.6;57.3
72124;BME280;63818;37.134;-8.548;2024-02-21T13:07:55;102324.2;;;18.6;56.6
72124;BME280;63818;37.134;-8.548;2024-02-21T13:12:48;102314.6;;;18.6;57.6
72124;BME280;63818;37.134;-8.548;2024-02-21T13:17:36;102314.8;;;18.6;58.3
72124;BME280;63818;37.134;-8.548;2024-02-21T13:27:16;102291.2;;;18.7;57.8
72124;BME280;63818;37.134;-8.548;2024-02-21T13:32:08;102279.3;;;18.7;59.4
72124;BME280;63818;37.134;-8.548;2024-02-21T13:41:49;102267.5;;;18.8;58.0
72124;BME280;63818;37.134;-8.548;2024-02-21T13:46:39;102267.0;;;18.9;57.9
72124;BME280;63818;37.134;-8.548;2024-02-21T13:51:29;102240.3;;;19.0;56.9
72124;BME280;63818;37.134;-8.548;2024-02-21T13:56:18;102239.0;;;19.0;57.5
72124;BME280;63818;37.134;-8.548;2024-02-21T14:01:06;102249.4;;;19.1;58.9
72124;BME280;63818;37.134;-8.548;2024-02-21T14:10:47;102227.1;;;19.1;58.7
72124;BME280;63818;37.134;-8.548;2024-02-21T14:15:35;102228.5;;;19.2;59.7
72124;BME280;63818;37.134;-8.548;2024-02-21T14:25:16;102208.4;;;19.4;60.0
72124;BME280;63818;37.134;-8.548;2024-02-21T14:30:05;102212.5;;;19.6;61.1
72124;BME280;63818;37.134;-8.548;2024-02-21T14:34:55;102199.4;;;19.6;61.4
72124;BME280;63818;37.134;-8.548;2024-02-21T14:39:43;102190.6;;;19.8;60.1
72124;BME280;63818;37.134;-8.548;2024-02-21T14:44:31;102190.0;;;20.0;60.0
72124;BME280;63818;37.134;-8.548;2024-02-21T14:49:19;102178.0;;;20.2;59.1
72124;BME280;63818;37.134;-8.548;2024-02-21T14:54:07;102168.3;;;20.3;58.3
72124;BME280;63818;37.134;-8.548;2024-02-21T14:58:58;102159.8;;;20.6;57.7
72124;BME280;63818;37.134;-8.548;2024-02-21T15:03:48;102163.0;;;20.9;59.3
72124;BME280;63818;37.134;-8.548;2024-02-21T15:08:37;102148.6;;;21.3;59.0
72124;BME280;63818;37.134;-8.548;2024-02-21T15:13:25;102141.9;;;21.7;59.3
72124;BME280;63818;37.134;-8.548;2024-02-21T15:18:16;102151.3;;;22.1;58.9
72124;BME280;63818;37.134;-8.548;2024-02-21T15:23:04;102152.5;;;22.4;58.8
72124;BME280;63818;37.134;-8.548;2024-02-21T15:27:57;102144.0;;;22.8;58.2
72124;BME280;63818;37.134;-8.548;2024-02-21T15:32:45;102149.7;;;23.2;58.5
72124;BME280;63818;37.134;-8.548;2024-02-21T15:37:33;102145.4;;;23.4;57.2
72124;BME280;63818;37.134;-8.548;2024-02-21T15:42:21;102138.7;;;23.7;56.9
72124;BME280;63818;37.134;-8.548;2024-02-21T15:47:19;102124.0;;;24.0;54.4
72124;BME280;63818;37.134;-8.548;2024-02-21T15:52:12;102120.3;;;24.4;52.6
72124;BME280;63818;37.134;-8.548;2024-02-21T15:57:00;102113.6;;;24.6;52.1
72124;BME280;63818;37.134;-8.548;2024-02-21T16:01:50;102113.0;;;24.7;53.2
72124;BME280;63818;37.134;-8.548;2024-02-21T16:06:39;102112.5;;;24.7;52.5
72124;BME280;63818;37.134;-8.548;2024-02-21T16:11:27;102104.7;;;24.7;50.6
72124;BME280;63818;37.134;-8.548;2024-02-21T16:16:18;102102.9;;;24.5;50.2
72124;BME280;63818;37.134;-8.548;2024-02-21T16:21:07;102106.5;;;24.4;49.6
72124;BME280;63818;37.134;-8.548;2024-02-21T16:25:55;102105.3;;;24.1;50.0
72124;BME280;63818;37.134;-8.548;2024-02-21T16:30:43;102097.7;;;24.5;44.7
72124;BME280;63818;37.134;-8.548;2024-02-21T16:35:31;102093.0;;;24.2;42.1
72124;BME280;63818;37.134;-8.548;2024-02-21T16:40:22;102103.5;;;23.8;42.1
72124;BME280;63818;37.134;-8.548;2024-02-21T16:45:10;102107.9;;;23.5;43.3
72124;BME280;63818;37.134;-8.548;2024-02-21T16:50:08;102103.8;;;23.2;43.9
72124;BME280;63818;37.134;-8.548;2024-02-21T16:54:56;102106.3;;;22.9;45.5
72124;BME280;63818;37.134;-8.548;2024-02-21T16:59:47;102119.2;;;22.5;46.4
72124;BME280;63818;37.134;-8.548;2024-02-21T17:04:37;102122.0;;;22.4;46.3
72124;BME280;63818;37.134;-8.548;2024-02-21T17:09:24;102118.1;;;22.4;47.0
72124;BME280;63818;37.134;-8.548;2024-02-21T17:14:13;102144.6;;;22.2;47.7
72124;BME280;63818;37.134;-8.548;2024-02-21T17:19:00;102131.7;;;22.1;48.4
72124;BME280;63818;37.134;-8.548;2024-02-21T17:28:41;102126.6;;;21.8;49.0
72124;BME280;63818;37.134;-8.548;2024-02-21T17:33:29;102131.3;;;21.7;48.9
72124;BME280;63818;37.134;-8.548;2024-02-21T17:38:17;102127.6;;;21.5;49.3
72124;BME280;63818;37.134;-8.548;2024-02-21T17:43:05;102147.9;;;21.2;50.2
72124;BME280;63818;37.134;-8.548;2024-02-21T17:47:55;102139.3;;;21.0;51.2
72124;BME280;63818;37.134;-8.548;2024-02-21T17:52:43;102155.2;;;20.7;51.5
72124;BME280;63818;37.134;-8.548;2024-02-21T17:57:31;102145.2;;;20.6;52.7
72124;BME280;63818;37.134;-8.548;2024-02-21T18:02:18;102161.1;;;20.5;53.5
72124;BME280;63818;37.134;-8.548;2024-02-21T18:07:08;102157.8;;;20.3;54.6
72124;BME280;63818;37.134;-8.548;2024-02-21T18:11:59;102171.0;;;20.2;55.8
72124;BME280;63818;37.134;-8.548;2024-02-21T18:21:40;102183.7;;;19.9;57.1
72124;BME280;63818;37.134;-8.548;2024-02-21T18:26:30;102175.6;;;19.8;58.4
72124;BME280;63818;37.134;-8.548;2024-02-21T18:31:18;102189.5;;;19.8;59.1
72124;BME280;63818;37.134;-8.548;2024-02-21T18:36:10;102196.4;;;19.6;60.5
72124;BME280;63818;37.134;-8.548;2024-02-21T18:40:58;102189.3;;;19.5;61.4
72124;BME280;63818;37.134;-8.548;2024-02-21T18:45:51;102186.1;;;19.4;61.5
72124;BME280;63818;37.134;-8.548;2024-02-21T18:50:39;102182.4;;;19.5;61.0
72124;BME280;63818;37.134;-8.548;2024-02-21T18:55:28;102195.7;;;19.4;61.2
72124;BME280;63818;37.134;-8.548;2024-02-21T19:00:16;102195.8;;;19.3;61.7
72124;BME280;63818;37.134;-8.548;2024-02-21T19:05:04;102214.2;;;19.2;62.1
72124;BME280;63818;37.134;-8.548;2024-02-21T19:09:57;102213.8;;;19.1;62.4
72124;BME280;63818;37.134;-8.548;2024-02-21T19:14:45;102223.2;;;19.0;63.0
72124;BME280;63818;37.134;-8.548;2024-02-21T19:19:33;102223.4;;;18.9;63.3
72124;BME280;63818;37.134;-8.548;2024-02-21T19:24:21;102227.4;;;18.9;63.0
72124;BME280;63818;37.134;-8.548;2024-02-21T19:29:12;102224.6;;;18.6;64.7
72124;BME280;63818;37.134;-8.548;2024-02-21T19:34:02;102227.5;;;18.7;64.2
72124;BME280;63818;37.134;-8.548;2024-02-21T19:38:50;102222.2;;;18.6;64.1
72124;BME280;63818;37.134;-8.548;2024-02-21T19:43:39;102226.7;;;18.5;63.8
72124;BME280;63818;37.134;-8.548;2024-02-21T19:48:27;102226.4;;;18.4;64.0
72124;BME280;63818;37.134;-8.548;2024-02-21T19:53:15;102232.8;;;18.5;64.2
72124;BME280;63818;37.134;-8.548;2024-02-21T19:58:06;102238.7;;;18.4;63.7
72124;BME280;63818;37.134;-8.548;2024-02-21T20:07:49;102252.4;;;18.2;63.6
72124;BME280;63818;37.134;-8.548;2024-02-21T20:12:37;102252.5;;;18.3;63.9
72124;BME280;63818;37.134;-8.548;2024-02-21T20:17:25;102261.3;;;18.2;63.1
72124;BME280;63818;37.134;-8.548;2024-02-21T20:22:19;102235.8;;;18.5;62.8
72124;BME280;63818;37.134;-8.548;2024-02-21T20:27:07;102255.0;;;18.4;62.6
72124;BME280;63818;37.134;-8.548;2024-02-21T20:31:55;102270.0;;;18.2;62.9
72124;BME280;63818;37.134;-8.548;2024-02-21T20:36:43;102262.3;;;18.1;62.6
72124;BME280;63818;37.134;-8.548;2024-02-21T20:41:33;102269.5;;;18.1;61.4
72124;BME280;63818;37.134;-8.548;2024-02-21T20:46:21;102259.1;;;18.2;60.4
72124;BME280;63818;37.134;-8.548;2024-02-21T20:51:09;102261.0;;;18.2;60.5
72124;BME280;63818;37.134;-8.548;2024-02-21T20:55:58;102265.9;;;18.1;61.1
72124;BME280;63818;37.134;-8.548;2024-02-21T21:05:39;102254.8;;;18.2;60.3
72124;BME280;63818;37.134;-8.548;2024-02-21T21:10:26;102248.3;;;18.1;60.2
72124;BME280;63818;37.134;-8.548;2024-02-21T21:15:17;102243.5;;;18.0;59.9
72124;BME280;63818;37.134;-8.548;2024-02-21T21:20:06;102249.1;;;18.0;59.2
72124;BME280;63818;37.134;-8.548;2024-02-21T21:24:57;102258.3;;;18.2;58.8
72124;BME280;63818;37.134;-8.548;2024-02-21T21:34:38;102246.3;;;18.1;60.2
72124;BME280;63818;37.134;-8.548;2024-02-21T21:39:29;102246.4;;;18.1;60.2
72124;BME280;63818;37.134;-8.548;2024-02-21T21:44:18;102248.0;;;18.0;60.4
72124;BME280;63818;37.134;-8.548;2024-02-21T21:49:06;102238.6;;;18.0;61.0
72124;BME280;63818;37.134;-8.548;2024-02-21T21:53:54;102245.8;;;18.1;61.4
72124;BME280;63818;37.134;-8.548;2024-02-21T21:58:46;102244.0;;;18.0;62.1
72124;BME280;63818;37.134;-8.548;2024-02-21T22:03:37;102245.8;;;17.8;63.4
72124;BME280;63818;37.134;-8.548;2024-02-21T22:08:27;102238.1;;;17.7;65.2
72124;BME280;63818;37.134;-8.548;2024-02-21T22:13:15;102247.2;;;17.6;67.4
72124;BME280;63818;37.134;-8.548;2024-02-21T22:18:03;102257.7;;;17.5;70.6
72124;BME280;63818;37.134;-8.548;2024-02-21T22:22:54;102244.7;;;17.6;72.1
72124;BME280;63818;37.134;-8.548;2024-02-21T22:27:44;102257.4;;;17.2;74.8
72124;BME280;63818;37.134;-8.548;2024-02-21T22:32:32;102264.9;;;17.2;77.2
72124;BME280;63818;37.134;-8.548;2024-02-21T22:37:22;102260.5;;;17.0;78.9
72124;BME280;63818;37.134;-8.548;2024-02-21T22:42:10;102264.8;;;16.9;80.1
72124;BME280;63818;37.134;-8.548;2024-02-21T22:47:03;102266.6;;;16.7;82.1
72124;BME280;63818;37.134;-8.548;2024-02-21T22:51:50;102268.4;;;16.6;83.5
72124;BME280;63818;37.134;-8.548;2024-02-21T22:56:41;102261.8;;;16.5;84.9
72124;BME280;63818;37.134;-8.548;2024-02-21T23:01:38;102257.4;;;16.7;84.0
72124;BME280;63818;37.134;-8.548;2024-02-21T23:06:25;102249.2;;;16.8;83.3
72124;BME280;63818;37.134;-8.548;2024-02-21T23:11:14;102237.4;;;16.6;83.7
72124;BME280;63818;37.134;-8.548;2024-02-21T23:16:01;102222.6;;;16.6;84.2
72124;BME280;63818;37.134;-8.548;2024-02-21T23:20:51;102223.5;;;17.0;82.8
72124;BME280;63818;37.134;-8.548;2024-02-21T23:25:39;102212.5;;;17.2;81.5
72124;BME280;63818;37.134;-8.548;2024-02-21T23:30:27;102193.2;;;17.3;80.3
72124;BME280;63818;37.134;-8.548;2024-02-21T23:35:15;102211.2;;;17.2;80.3
72124;BME280;63818;37.134;-8.548;2024-02-21T23:40:07;102181.2;;;17.2;80.5
72124;BME280;63818;37.134;-8.548;2024-02-21T23:44:55;102175.8;;;17.2;80.5
72124;BME280;63818;37.134;-8.548;2024-02-21T23:54:31;102205.1;;;17.0;81.8
72124;BME280;63818;37.134;-8.548;2024-02-21T23:59:19;102210.5;;;17.2;81.1
